Time;durP1;ratioP1;P1;durP2;ratioP2;P2;SDS_P1;SDS_P2;PMS_P1;PMS_P2;Temp;Humidity;BMP_temperature;BMP_pressure;BME280_temperature;BME280_humidity;BME280_pressure;Samples;Min_cycle;Max_cycle;Signal;HPM_P1;HPM_P2
2023/10/20 00:01:32;;;;;;;56.60;2.60;;;;;;;;;;5052535;28;20558;-71
2023/10/20 00:04:02;;;;;;;56.37;3.17;;;;;;;;;;5052356;28;20498;-71
2023/10/20 00:06:30;;;;;;;56.27;3.07;;;;;;;;;;5052262;28;20539;-70
2023/10/20 00:08:58;;;;;;;56.73;2.83;;;;;;;;;;5046835;28;20474;-71
2023/10/20 00:11:26;;;;;;;56.40;2.80;;;;;;;;;;5051109;28;21013;-70
2023/10/20 00:13:53;;;;;;;56.87;3.20;;;;;;;;;;5052135;28;20446;-71
2023/10/20 00:16:24;;;;;;;56.37;2.27;;;;;;;;;;5052572;28;20779;-70
2023/10/20 00:18:51;;;;;;;56.20;2.20;;;;;;;;;;5052210;28;20490;-71
2023/10/20 00:21:19;;;;;;;56.07;2.50;;;;;;;;;;5051957;28;20445;-71
2023/10/20 00:23:47;;;;;;;56.17;2.10;;;;;;;;;;5052038;28;20454;-70
2023/10/20 00:26:14;;;;;;;55.90;2.30;;;;;;;;;;5052341;28;20446;-70
2023/10/20 00:28:41;;;;;;;56.60;2.93;;;;;;;;;;5051927;28;20466;-71
2023/10/20 00:31:11;;;;;;;56.20;2.57;;;;;;;;;;5051003;28;20452;-70
2023/10/20 00:33:38;;;;;;;55.90;2.23;;;;;;;;;;5051913;28;20454;-71
2023/10/20 00:36:05;;;;;;;56.30;2.30;;;;;;;;;;5043268;28;20932;-71
2023/10/20 00:38:32;;;;;;;56.20;2.33;;;;;;;;;;5051909;28;20489;-70
2023/10/20 00:41:01;;;;;;;55.87;2.27;;;;;;;;;;5051541;28;20445;-71
2023/10/20 00:43:35;;;;;;;56.50;2.50;;;;;;;;;;5051450;28;20555;-70
2023/10/20 00:46:02;;;;;;;56.17;2.40;;;;;;;;;;5051470;28;20448;-70
2023/10/20 00:48:30;;;;;;;56.60;3.30;;;;;;;;;;5051354;28;20463;-71
2023/10/20 00:50:59;;;;;;;56.20;2.50;;;;;;;;;;5051184;28;20830;-70
2023/10/20 00:53:27;;;;;;;56.20;2.50;;;;;;;;;;5051606;28;20566;-71
2023/10/20 00:55:54;;;;;;;56.23;2.43;;;;;;;;;;5051349;28;20558;-70
2023/10/20 00:58:23;;;;;;;56.17;2.10;;;;;;;;;;5051168;28;21011;-70
2023/10/20 01:00:50;;;;;;;56.37;2.50;;;;;;;;;;5051086;28;20456;-70
2023/10/20 01:03:17;;;;;;;56.23;2.40;;;;;;;;;;5050997;28;20544;-71
2023/10/20 01:05:44;;;;;;;56.37;2.60;;;;;;;;;;5051326;28;20820;-70
2023/10/20 01:08:11;;;;;;;56.33;2.73;;;;;;;;;;5051291;28;20451;-71
2023/10/20 01:10:39;;;;;;;56.27;2.60;;;;;;;;;;5051008;28;20477;-71
2023/10/20 01:13:06;;;;;;;56.30;2.53;;;;;;;;;;5050939;28;20445;-71
2023/10/20 01:15:34;;;;;;;56.10;2.20;;;;;;;;;;5051074;28;20989;-70
2023/10/20 01:18:01;;;;;;;56.60;2.57;;;;;;;;;;5050840;28;21293;-70
2023/10/20 01:20:29;;;;;;;56.30;2.53;;;;;;;;;;5051034;28;21006;-70
2023/10/20 01:22:58;;;;;;;56.30;2.60;;;;;;;;;;5050613;28;20456;-70
2023/10/20 01:25:27;;;;;;;56.13;2.40;;;;;;;;;;5050992;28;20454;-71
2023/10/20 01:27:55;;;;;;;56.27;2.37;;;;;;;;;;5050848;28;20446;-71
2023/10/20 01:30:22;;;;;;;56.23;2.63;;;;;;;;;;5050644;28;21030;-71
2023/10/20 01:32:49;;;;;;;56.37;2.67;;;;;;;;;;5050881;28;20460;-70
2023/10/20 01:35:19;;;;;;;56.30;2.50;;;;;;;;;;5050691;28;20453;-71
2023/10/20 01:37:47;;;;;;;56.27;2.37;;;;;;;;;;5050082;28;20490;-71
2023/10/20 01:40:14;;;;;;;56.47;3.00;;;;;;;;;;5050471;28;20479;-70
2023/10/20 01:42:43;;;;;;;57.20;2.80;;;;;;;;;;5051596;28;20517;-70
2023/10/20 01:45:10;;;;;;;56.20;2.50;;;;;;;;;;5054670;28;20451;-70
2023/10/20 01:47:37;;;;;;;55.90;2.37;;;;;;;;;;5054797;28;20448;-71
2023/10/20 01:50:05;;;;;;;56.13;2.60;;;;;;;;;;5055032;28;20887;-70
2023/10/20 01:52:32;;;;;;;56.20;2.40;;;;;;;;;;5054592;28;20444;-70
2023/10/20 01:54:59;;;;;;;56.67;2.70;;;;;;;;;;5054561;28;21022;-71
2023/10/20 01:57:26;;;;;;;56.20;2.50;;;;;;;;;;5054801;28;20451;-70
2023/10/20 01:59:55;;;;;;;56.10;2.50;;;;;;;;;;5054263;28;20491;-70
2023/10/20 02:02:22;;;;;;;56.30;2.40;;;;;;;;;;5054257;28;20453;-70
2023/10/20 02:04:49;;;;;;;56.07;2.30;;;;;;;;;;5054196;28;20914;-71
2023/10/20 02:07:17;;;;;;;56.40;2.80;;;;;;;;;;5054421;28;20800;-70
2023/10/20 02:09:44;;;;;;;56.60;2.50;;;;;;;;;;5048444;28;20588;-70
2023/10/20 02:12:13;;;;;;;56.07;2.47;;;;;;;;;;5049036;28;20459;-70
2023/10/20 02:14:40;;;;;;;56.33;2.50;;;;;;;;;;5053839;28;20545;-70
2023/10/20 02:17:10;;;;;;;56.27;2.40;;;;;;;;;;5053987;28;20449;-70
2023/10/20 02:19:37;;;;;;;56.10;2.30;;;;;;;;;;5054092;28;20924;-71
2023/10/20 02:22:04;;;;;;;56.27;2.50;;;;;;;;;;5054251;28;20480;-70
2023/10/20 02:24:31;;;;;;;56.27;2.60;;;;;;;;;;5053944;28;20545;-71
2023/10/20 02:26:58;;;;;;;56.30;2.33;;;;;;;;;;5053884;28;20540;-70
2023/10/20 02:29:25;;;;;;;56.20;2.10;;;;;;;;;;5053901;28;20573;-70
2023/10/20 02:31:52;;;;;;;56.30;2.80;;;;;;;;;;5053560;28;20454;-70
2023/10/20 02:34:21;;;;;;;56.03;2.27;;;;;;;;;;5053890;28;20454;-70
2023/10/20 02:36:49;;;;;;;56.30;2.33;;;;;;;;;;5054029;28;20448;-69
2023/10/20 02:39:17;;;;;;;56.20;2.30;;;;;;;;;;5053508;28;20488;-71
2023/10/20 02:41:44;;;;;;;56.37;2.30;;;;;;;;;;5053895;28;20810;-70
2023/10/20 02:44:13;;;;;;;56.20;2.40;;;;;;;;;;5053373;28;20444;-70
2023/10/20 02:46:40;;;;;;;56.07;2.20;;;;;;;;;;5054103;28;20461;-70
2023/10/20 02:49:07;;;;;;;57.03;3.00;;;;;;;;;;5053389;28;20960;-70
2023/10/20 02:51:35;;;;;;;56.70;3.20;;;;;;;;;;5053643;28;20820;-70
2023/10/20 02:54:02;;;;;;;56.40;2.40;;;;;;;;;;5052483;28;20447;-70
2023/10/20 02:56:30;;;;;;;55.93;2.17;;;;;;;;;;5053395;28;20444;-70
2023/10/20 02:58:57;;;;;;;56.13;2.20;;;;;;;;;;5053010;28;20489;-71
2023/10/20 03:01:24;;;;;;;56.70;2.70;;;;;;;;;;5052936;28;20973;-71
2023/10/20 03:03:51;;;;;;;56.20;2.40;;;;;;;;;;5053130;28;21010;-70
2023/10/20 03:06:19;;;;;;;56.50;2.67;;;;;;;;;;5053357;28;20818;-71
2023/10/20 03:08:47;;;;;;;56.60;2.60;;;;;;;;;;5053213;28;20565;-70
2023/10/20 03:11:14;;;;;;;56.30;2.50;;;;;;;;;;5045089;28;20486;-70
2023/10/20 03:13:42;;;;;;;56.07;2.43;;;;;;;;;;5052756;28;20445;-70
2023/10/20 03:16:09;;;;;;;56.70;2.83;;;;;;;;;;5053180;28;20447;-70
2023/10/20 03:18:36;;;;;;;56.40;2.63;;;;;;;;;;5053321;28;20490;-71
2023/10/20 03:21:04;;;;;;;56.30;2.37;;;;;;;;;;5052810;28;20448;-70
2023/10/20 03:23:32;;;;;;;56.40;2.27;;;;;;;;;;5052829;28;20454;-70
2023/10/20 03:26:01;;;;;;;56.17;2.57;;;;;;;;;;5052728;28;20451;-70
2023/10/20 03:28:28;;;;;;;56.27;2.53;;;;;;;;;;5052734;28;20456;-70
2023/10/20 03:30:55;;;;;;;56.23;2.50;;;;;;;;;;5052796;28;20528;-70
2023/10/20 03:33:22;;;;;;;56.63;2.60;;;;;;;;;;5052760;28;20484;-71
2023/10/20 03:35:49;;;;;;;56.27;2.53;;;;;;;;;;5052762;28;20444;-70
2023/10/20 03:38:17;;;;;;;56.50;2.70;;;;;;;;;;5052638;28;20485;-71
2023/10/20 03:40:46;;;;;;;56.50;2.80;;;;;;;;;;5052499;28;20467;-70
2023/10/20 03:43:14;;;;;;;56.20;2.40;;;;;;;;;;5052632;28;20449;-70
2023/10/20 03:45:48;;;;;;;56.13;2.30;;;;;;;;;;5052682;28;20454;-70
2023/10/20 03:48:15;;;;;;;56.30;2.60;;;;;;;;;;5053051;28;20457;-70
2023/10/20 03:50:44;;;;;;;56.03;2.20;;;;;;;;;;5052679;28;20472;-70
2023/10/20 03:53:15;;;;;;;56.17;2.20;;;;;;;;;;5052275;28;20502;-70
2023/10/20 03:55:42;;;;;;;56.00;2.30;;;;;;;;;;5052653;28;20824;-70
2023/10/20 03:58:09;;;;;;;56.00;2.43;;;;;;;;;;5052327;28;20443;-71
2023/10/20 04:00:41;;;;;;;56.37;2.63;;;;;;;;;;5051854;28;20482;-71
2023/10/20 04:03:09;;;;;;;56.23;2.57;;;;;;;;;;5052178;28;20458;-71
2023/10/20 04:05:36;;;;;;;56.77;2.73;;;;;;;;;;5051700;28;20452;-71
2023/10/20 04:08:05;;;;;;;56.07;2.50;;;;;;;;;;5052137;28;20513;-72
2023/10/20 04:10:34;;;;;;;56.30;2.50;;;;;;;;;;5051532;28;20474;-70
2023/10/20 04:13:02;;;;;;;56.13;2.30;;;;;;;;;;5046432;28;20549;-70
2023/10/20 04:15:36;;;;;;;56.07;2.43;;;;;;;;;;5051862;28;20547;-71
2023/10/20 04:18:05;;;;;;;56.63;2.77;;;;;;;;;;5051491;28;20450;-70
2023/10/20 04:20:33;;;;;;;56.70;3.43;;;;;;;;;;5051376;28;20555;-70
2023/10/20 04:23:00;;;;;;;56.17;2.40;;;;;;;;;;5051739;28;20454;-70
2023/10/20 04:25:33;;;;;;;56.50;2.60;;;;;;;;;;5052049;28;20456;-71
2023/10/20 04:28:11;;;;;;;56.50;2.40;;;;;;;;;;5051772;28;20452;-71
2023/10/20 04:42:01;;;;;;;56.07;2.60;;;;;;;;;;5051504;28;20480;-70
2023/10/20 04:53:32;;;;;;;56.23;2.50;;;;;;;;;;5051225;28;20429;-71
2023/10/20 04:58:58;;;;;;;56.10;2.20;;;;;;;;;;5040320;28;20484;-72
2023/10/20 05:01:28;;;;;;;56.20;2.60;;;;;;;;;;5043750;28;20495;-70
2023/10/20 05:03:57;;;;;;;56.17;2.70;;;;;;;;;;5050570;28;20443;-70
2023/10/20 05:06:29;;;;;;;56.10;2.37;;;;;;;;;;5051197;28;20446;-71
2023/10/20 05:08:56;;;;;;;56.40;2.50;;;;;;;;;;5051236;28;20869;-70
2023/10/20 05:11:24;;;;;;;56.13;2.30;;;;;;;;;;5051254;28;20511;-70
2023/10/20 05:13:51;;;;;;;56.07;2.30;;;;;;;;;;5050814;28;20803;-70
2023/10/20 05:16:21;;;;;;;55.97;2.40;;;;;;;;;;5042662;28;20512;-71
2023/10/20 05:18:48;;;;;;;56.50;2.47;;;;;;;;;;5050393;28;20499;-71
2023/10/20 05:21:15;;;;;;;56.03;2.53;;;;;;;;;;5050841;28;20931;-70
2023/10/20 05:23:46;;;;;;;56.17;2.77;;;;;;;;;;5050815;28;20867;-71
2023/10/20 05:26:13;;;;;;;56.30;2.40;;;;;;;;;;5050913;28;20502;-70
2023/10/20 05:28:40;;;;;;;56.37;2.50;;;;;;;;;;5050766;28;20469;-70
2023/10/20 05:31:07;;;;;;;56.90;2.50;;;;;;;;;;5050520;28;20461;-70
2023/10/20 05:33:34;;;;;;;56.53;2.60;;;;;;;;;;5050930;28;20504;-70
2023/10/20 05:36:03;;;;;;;56.50;2.70;;;;;;;;;;5045693;28;20455;-70
2023/10/20 05:38:31;;;;;;;56.30;2.50;;;;;;;;;;5050747;28;20482;-70
2023/10/20 05:41:00;;;;;;;56.17;2.37;;;;;;;;;;5050504;28;20493;-70
2023/10/20 05:43:27;;;;;;;57.33;2.83;;;;;;;;;;5044145;28;20487;-71
2023/10/20 05:45:54;;;;;;;56.57;3.17;;;;;;;;;;5048127;28;20452;-70
2023/10/20 05:48:21;;;;;;;56.13;2.23;;;;;;;;;;5047232;28;20452;-71
2023/10/20 05:50:49;;;;;;;56.87;2.57;;;;;;;;;;5050437;28;20446;-70
2023/10/20 05:53:16;;;;;;;56.17;2.43;;;;;;;;;;5050482;28;20478;-70
2023/10/20 05:55:43;;;;;;;56.77;2.57;;;;;;;;;;5046202;28;20475;-71
2023/10/20 05:58:12;;;;;;;56.80;3.80;;;;;;;;;;5048966;28;20866;-70
2023/10/20 06:00:40;;;;;;;56.23;2.40;;;;;;;;;;5049895;28;21001;-70
2023/10/20 06:03:07;;;;;;;56.70;2.50;;;;;;;;;;5050442;28;20455;-70
2023/10/20 06:05:34;;;;;;;56.33;2.27;;;;;;;;;;5048309;28;20502;-70
2023/10/20 06:08:02;;;;;;;56.60;2.67;;;;;;;;;;5049620;28;20708;-70
2023/10/20 06:10:29;;;;;;;56.40;2.43;;;;;;;;;;5049953;28;20996;-71
2023/10/20 06:12:57;;;;;;;56.17;2.30;;;;;;;;;;5043205;28;20463;-71
2023/10/20 06:15:25;;;;;;;56.90;2.70;;;;;;;;;;5050364;28;20543;-70
2023/10/20 06:17:52;;;;;;;55.87;2.23;;;;;;;;;;5050685;28;20815;-71
2023/10/20 06:20:20;;;;;;;56.47;2.30;;;;;;;;;;5050559;28;20496;-71
2023/10/20 06:22:47;;;;;;;56.60;2.70;;;;;;;;;;5050266;28;20442;-71
2023/10/20 06:25:14;;;;;;;56.47;2.83;;;;;;;;;;5050123;28;20478;-71
2023/10/20 06:27:42;;;;;;;56.43;3.10;;;;;;;;;;5050380;28;20452;-70
2023/10/20 06:30:14;;;;;;;55.97;3.00;;;;;;;;;;5044190;28;20557;-70
2023/10/20 06:32:45;;;;;;;56.27;2.57;;;;;;;;;;5053773;28;20451;-71
2023/10/20 06:35:13;;;;;;;56.87;3.17;;;;;;;;;;5053771;28;20484;-70
2023/10/20 06:37:46;;;;;;;56.97;2.67;;;;;;;;;;5053804;28;20447;-70
2023/10/20 06:40:16;;;;;;;56.30;2.80;;;;;;;;;;5053774;28;20498;-70
2023/10/20 06:42:43;;;;;;;55.97;2.43;;;;;;;;;;5053652;28;20454;-70
2023/10/20 06:45:11;;;;;;;57.00;3.07;;;;;;;;;;5053666;28;20475;-71
2023/10/20 06:47:39;;;;;;;56.23;2.50;;;;;;;;;;5053845;28;20444;-70
2023/10/20 06:50:08;;;;;;;56.97;2.23;;;;;;;;;;5053300;28;20830;-71
2023/10/20 06:52:35;;;;;;;56.80;2.90;;;;;;;;;;5053668;28;20458;-70
2023/10/20 06:55:03;;;;;;;56.80;3.10;;;;;;;;;;5053374;28;20455;-71
2023/10/20 06:57:30;;;;;;;56.63;3.03;;;;;;;;;;5053515;28;20479;-71
2023/10/20 06:59:57;;;;;;;56.50;3.07;;;;;;;;;;5053291;28;20858;-71
2023/10/20 07:02:24;;;;;;;56.50;2.70;;;;;;;;;;5053365;28;20460;-70
2023/10/20 07:04:51;;;;;;;56.50;2.60;;;;;;;;;;5053072;28;20957;-70
2023/10/20 07:07:20;;;;;;;56.40;2.50;;;;;;;;;;5053385;28;20472;-70
2023/10/20 07:09:47;;;;;;;56.37;2.80;;;;;;;;;;5053283;28;20468;-70
2023/10/20 07:12:15;;;;;;;56.47;2.70;;;;;;;;;;5053202;28;20478;-70
2023/10/20 07:14:43;;;;;;;56.27;2.90;;;;;;;;;;5053020;28;20827;-71
2023/10/20 07:17:11;;;;;;;56.00;2.90;;;;;;;;;;5053025;28;20468;-71
2023/10/20 07:19:39;;;;;;;57.07;3.27;;;;;;;;;;5053112;28;20517;-71
2023/10/20 07:22:06;;;;;;;56.37;2.90;;;;;;;;;;5052890;28;20948;-70
2023/10/20 07:24:35;;;;;;;56.17;2.73;;;;;;;;;;5052919;28;20454;-70
2023/10/20 07:27:02;;;;;;;56.30;3.00;;;;;;;;;;5052815;28;20472;-70
2023/10/20 07:29:30;;;;;;;56.30;2.53;;;;;;;;;;5052727;28;20836;-71
2023/10/20 07:31:57;;;;;;;56.80;3.03;;;;;;;;;;5052744;28;20488;-71
2023/10/20 07:34:27;;;;;;;56.77;3.40;;;;;;;;;;5044576;28;20947;-71
2023/10/20 07:36:54;;;;;;;57.17;3.03;;;;;;;;;;5052879;28;20455;-71
2023/10/20 07:39:22;;;;;;;56.40;2.90;;;;;;;;;;5052606;28;20487;-71
2023/10/20 07:41:51;;;;;;;56.50;2.60;;;;;;;;;;5052119;28;20462;-70
2023/10/20 07:44:18;;;;;;;57.00;3.47;;;;;;;;;;5052362;28;20458;-70
2023/10/20 07:46:45;;;;;;;56.60;2.80;;;;;;;;;;5052792;28;20453;-71
2023/10/20 07:49:12;;;;;;;56.37;2.83;;;;;;;;;;5052500;28;20464;-71
2023/10/20 07:51:39;;;;;;;56.30;2.63;;;;;;;;;;5051646;28;20458;-70
2023/10/20 07:54:07;;;;;;;57.33;4.47;;;;;;;;;;5052217;28;20449;-71
2023/10/20 07:56:34;;;;;;;56.00;2.20;;;;;;;;;;5052319;28;20449;-70
2023/10/20 07:59:03;;;;;;;56.40;2.70;;;;;;;;;;5052137;28;20469;-70
2023/10/20 08:01:30;;;;;;;57.17;3.40;;;;;;;;;;5044388;28;20492;-70
2023/10/20 08:03:57;;;;;;;57.90;3.80;;;;;;;;;;5052159;28;20449;-70
2023/10/20 08:06:25;;;;;;;56.80;3.00;;;;;;;;;;5052129;28;20439;-70
2023/10/20 08:08:52;;;;;;;56.47;3.30;;;;;;;;;;5052131;28;20466;-71
2023/10/20 08:11:19;;;;;;;56.97;2.63;;;;;;;;;;5051797;28;20444;-70
2023/10/20 08:13:50;;;;;;;56.17;2.83;;;;;;;;;;5052148;28;20817;-70
2023/10/20 08:16:21;;;;;;;57.27;4.37;;;;;;;;;;5051951;28;20502;-71
2023/10/20 08:18:48;;;;;;;56.10;2.60;;;;;;;;;;5052046;28;20467;-71
2023/10/20 08:21:16;;;;;;;57.23;3.23;;;;;;;;;;5051674;28;20488;-71
2023/10/20 08:23:43;;;;;;;56.87;3.10;;;;;;;;;;5051587;28;20454;-71
2023/10/20 08:26:15;;;;;;;56.60;3.30;;;;;;;;;;5051834;28;20478;-71
2023/10/20 08:28:43;;;;;;;56.20;2.50;;;;;;;;;;5051881;28;20511;-71
2023/10/20 08:31:13;;;;;;;57.00;3.33;;;;;;;;;;5051735;28;20443;-71
2023/10/20 08:33:42;;;;;;;56.50;2.77;;;;;;;;;;5051790;28;20476;-71
2023/10/20 08:36:13;;;;;;;57.47;3.00;;;;;;;;;;5051414;28;20545;-71
2023/10/20 08:38:40;;;;;;;57.00;2.40;;;;;;;;;;5051332;28;20442;-69
2023/10/20 08:41:11;;;;;;;56.10;2.37;;;;;;;;;;5051512;28;20499;-69
2023/10/20 08:43:40;;;;;;;56.10;2.30;;;;;;;;;;5051411;28;20832;-69
2023/10/20 08:46:08;;;;;;;56.40;2.60;;;;;;;;;;5051410;28;20500;-69
2023/10/20 08:48:35;;;;;;;57.50;3.83;;;;;;;;;;5050744;28;21011;-69
2023/10/20 08:51:03;;;;;;;56.87;3.30;;;;;;;;;;5051127;28;20453;-69
2023/10/20 08:53:33;;;;;;;56.67;2.97;;;;;;;;;;5050440;28;20440;-69
2023/10/20 08:56:00;;;;;;;57.57;3.40;;;;;;;;;;5051270;28;20501;-69
2023/10/20 08:58:28;;;;;;;57.03;3.27;;;;;;;;;;5051090;28;20462;-69
2023/10/20 09:00:57;;;;;;;56.20;3.07;;;;;;;;;;5050789;28;21010;-69
2023/10/20 09:03:25;;;;;;;56.60;3.63;;;;;;;;;;5050810;28;20458;-69
2023/10/20 09:05:52;;;;;;;56.37;2.90;;;;;;;;;;5051029;28;20463;-69
2023/10/20 09:08:22;;;;;;;56.80;3.57;;;;;;;;;;5051248;28;20451;-69
2023/10/20 09:10:49;;;;;;;56.87;3.10;;;;;;;;;;5051117;28;20815;-69
2023/10/20 09:13:16;;;;;;;56.57;2.27;;;;;;;;;;5051317;28;20472;-69
2023/10/20 09:15:43;;;;;;;57.23;3.10;;;;;;;;;;5051005;28;20443;-69
2023/10/20 09:18:11;;;;;;;57.17;3.63;;;;;;;;;;5050833;28;20452;-69
2023/10/20 09:20:39;;;;;;;56.60;3.20;;;;;;;;;;5050757;28;20500;-69
2023/10/20 09:23:09;;;;;;;56.80;3.23;;;;;;;;;;5050693;28;20460;-69
2023/10/20 09:25:38;;;;;;;56.50;2.70;;;;;;;;;;5050309;28;20478;-69
2023/10/20 09:28:05;;;;;;;56.83;2.20;;;;;;;;;;5050958;28;20444;-69
2023/10/20 09:30:33;;;;;;;56.20;2.90;;;;;;;;;;5050685;28;20457;-69
2023/10/20 09:33:00;;;;;;;57.10;2.93;;;;;;;;;;5050699;28;20448;-69
2023/10/20 09:35:29;;;;;;;57.07;3.20;;;;;;;;;;5050594;28;20453;-68
2023/10/20 09:37:56;;;;;;;58.37;3.33;;;;;;;;;;5050873;28;20484;-69
2023/10/20 09:40:24;;;;;;;56.17;2.60;;;;;;;;;;5050356;28;20494;-69
2023/10/20 09:42:57;;;;;;;56.07;2.63;;;;;;;;;;5050594;28;20451;-69
2023/10/20 09:45:33;;;;;;;56.50;3.20;;;;;;;;;;5050531;28;20443;-69
2023/10/20 09:48:02;;;;;;;56.10;2.77;;;;;;;;;;5050834;28;20454;-69
2023/10/20 09:50:31;;;;;;;57.40;3.47;;;;;;;;;;5050396;28;20464;-69
2023/10/20 09:52:58;;;;;;;56.70;3.40;;;;;;;;;;5050522;28;20482;-69
2023/10/20 09:55:26;;;;;;;57.67;3.37;;;;;;;;;;5050447;28;20943;-69
2023/10/20 09:57:54;;;;;;;58.37;3.70;;;;;;;;;;5049514;28;20453;-69
2023/10/20 10:00:30;;;;;;;60.73;4.07;;;;;;;;;;5049428;28;20497;-68
2023/10/20 10:02:58;;;;;;;56.10;2.60;;;;;;;;;;5050091;28;20529;-69
2023/10/20 10:05:26;;;;;;;57.50;4.20;;;;;;;;;;5053916;28;20445;-69
2023/10/20 10:08:04;;;;;;;57.30;3.00;;;;;;;;;;5053694;28;20455;-69
2023/10/20 10:10:31;;;;;;;57.00;3.70;;;;;;;;;;5054352;28;20458;-69
2023/10/20 10:13:01;;;;;;;56.50;2.77;;;;;;;;;;5054352;28;20455;-69
2023/10/20 10:15:36;;;;;;;58.50;3.17;;;;;;;;;;5054295;28;20455;-69
2023/10/20 10:18:08;;;;;;;56.70;2.93;;;;;;;;;;5054548;28;20490;-69
2023/10/20 10:20:41;;;;;;;56.37;2.53;;;;;;;;;;5053806;28;20489;-69
2023/10/20 10:23:10;;;;;;;57.03;3.37;;;;;;;;;;5054183;28;20448;-69
2023/10/20 10:25:39;;;;;;;56.90;2.80;;;;;;;;;;5054180;28;20499;-69
2023/10/20 10:28:11;;;;;;;57.13;3.07;;;;;;;;;;5054108;28;20462;-69
2023/10/20 10:30:39;;;;;;;56.50;2.50;;;;;;;;;;5053979;28;20488;-69
2023/10/20 10:33:08;;;;;;;57.70;3.00;;;;;;;;;;5053710;28;20443;-69
2023/10/20 10:35:36;;;;;;;56.07;2.40;;;;;;;;;;5045930;28;20534;-69
2023/10/20 10:38:06;;;;;;;56.40;2.60;;;;;;;;;;5053816;28;20512;-69
2023/10/20 10:40:34;;;;;;;56.10;2.40;;;;;;;;;;5053603;28;20484;-69
2023/10/20 10:43:01;;;;;;;56.50;2.97;;;;;;;;;;5053503;28;20455;-69
2023/10/20 10:45:31;;;;;;;56.67;2.70;;;;;;;;;;5053414;28;20455;-69
2023/10/20 10:48:04;;;;;;;56.53;3.20;;;;;;;;;;5053792;28;20443;-69
2023/10/20 10:50:32;;;;;;;56.80;2.80;;;;;;;;;;5053282;28;20468;-70
2023/10/20 10:52:59;;;;;;;56.20;2.50;;;;;;;;;;5053488;28;20835;-69
2023/10/20 10:55:27;;;;;;;56.00;2.37;;;;;;;;;;5053491;28;20456;-69
2023/10/20 10:57:54;;;;;;;56.40;2.67;;;;;;;;;;5053934;28;20451;-69
2023/10/20 11:00:21;;;;;;;56.70;3.03;;;;;;;;;;5052927;28;20464;-69
2023/10/20 11:02:50;;;;;;;56.03;2.40;;;;;;;;;;5053344;28;20451;-69
2023/10/20 11:05:18;;;;;;;56.20;2.80;;;;;;;;;;5053107;28;20471;-70
2023/10/20 11:08:01;;;;;;;56.90;3.47;;;;;;;;;;5053472;28;20481;-69
2023/10/20 11:10:29;;;;;;;55.77;2.20;;;;;;;;;;5052892;28;20527;-69
2023/10/20 11:12:56;;;;;;;56.60;2.83;;;;;;;;;;5053317;28;20540;-70
2023/10/20 11:15:26;;;;;;;55.87;2.17;;;;;;;;;;5052329;28;20473;-69
2023/10/20 11:17:58;;;;;;;56.20;2.30;;;;;;;;;;5053313;28;20496;-70
2023/10/20 11:20:25;;;;;;;56.37;2.93;;;;;;;;;;5052714;28;20476;-70
2023/10/20 11:22:55;;;;;;;56.07;2.17;;;;;;;;;;5052917;28;20451;-70
2023/10/20 11:25:24;;;;;;;56.00;2.50;;;;;;;;;;5050665;28;20535;-70
2023/10/20 11:27:54;;;;;;;56.37;2.43;;;;;;;;;;5050336;28;20465;-70
2023/10/20 11:30:25;;;;;;;56.00;2.20;;;;;;;;;;5051531;28;20877;-71
2023/10/20 11:32:53;;;;;;;55.90;2.00;;;;;;;;;;5051952;28;20456;-71
2023/10/20 11:35:24;;;;;;;56.10;2.47;;;;;;;;;;5052011;28;20498;-70
2023/10/20 11:37:52;;;;;;;55.90;2.20;;;;;;;;;;5052034;28;20459;-71
2023/10/20 11:40:19;;;;;;;56.00;2.30;;;;;;;;;;5052259;28;20887;-70
2023/10/20 11:42:46;;;;;;;56.10;2.30;;;;;;;;;;5052530;28;20491;-70
2023/10/20 11:45:14;;;;;;;55.87;1.80;;;;;;;;;;5051872;28;20448;-70
2023/10/20 11:47:41;;;;;;;55.73;1.80;;;;;;;;;;5051407;28;20453;-71
2023/10/20 11:50:09;;;;;;;55.90;2.20;;;;;;;;;;5051155;28;20778;-71
2023/10/20 11:52:38;;;;;;;56.10;2.50;;;;;;;;;;5044774;28;20450;-71
2023/10/20 11:55:06;;;;;;;56.00;1.93;;;;;;;;;;5051287;28;20482;-71
2023/10/20 11:57:33;;;;;;;55.70;2.20;;;;;;;;;;5050695;28;20456;-72
2023/10/20 12:00:02;;;;;;;55.80;1.87;;;;;;;;;;5046640;28;20542;-71
2023/10/20 12:02:30;;;;;;;56.20;2.20;;;;;;;;;;5048079;28;20488;-71
2023/10/20 12:04:57;;;;;;;55.90;1.97;;;;;;;;;;5052026;28;20464;-71
2023/10/20 12:07:24;;;;;;;55.67;1.97;;;;;;;;;;5051271;28;20459;-71
2023/10/20 12:09:52;;;;;;;56.30;2.40;;;;;;;;;;5052147;28;20770;-71
2023/10/20 12:12:20;;;;;;;56.40;2.20;;;;;;;;;;5051992;28;20900;-71
2023/10/20 12:14:47;;;;;;;55.97;1.97;;;;;;;;;;5051862;28;20454;-71
2023/10/20 12:17:15;;;;;;;55.87;1.90;;;;;;;;;;5051885;28;20451;-71
2023/10/20 12:19:42;;;;;;;55.90;1.80;;;;;;;;;;5043813;28;20479;-71
2023/10/20 12:22:09;;;;;;;55.70;1.87;;;;;;;;;;5051932;28;20530;-71
2023/10/20 12:24:36;;;;;;;57.07;1.87;;;;;;;;;;5051662;28;20447;-71
2023/10/20 12:27:05;;;;;;;55.83;1.90;;;;;;;;;;5051718;28;20457;-71
2023/10/20 12:29:32;;;;;;;55.67;1.70;;;;;;;;;;5051671;28;20472;-71
2023/10/20 12:31:59;;;;;;;55.67;1.67;;;;;;;;;;5051503;28;20540;-71
2023/10/20 12:34:27;;;;;;;55.70;1.80;;;;;;;;;;5051717;28;20448;-71
2023/10/20 12:36:54;;;;;;;55.77;1.90;;;;;;;;;;5051432;28;20952;-71
2023/10/20 12:39:22;;;;;;;55.67;2.10;;;;;;;;;;5051435;28;20477;-71
2023/10/20 12:41:51;;;;;;;55.93;2.03;;;;;;;;;;5051380;28;21086;-71
2023/10/20 12:44:19;;;;;;;55.77;1.90;;;;;;;;;;5050964;28;20968;-71
2023/10/20 12:46:46;;;;;;;56.00;2.30;;;;;;;;;;5051475;28;20445;-71
2023/10/20 12:49:13;;;;;;;55.57;1.80;;;;;;;;;;5051497;28;20467;-71
2023/10/20 12:51:41;;;;;;;55.87;1.90;;;;;;;;;;5051243;28;20444;-71
2023/10/20 12:54:08;;;;;;;55.90;2.27;;;;;;;;;;5051278;28;20513;-71
2023/10/20 12:56:35;;;;;;;55.87;2.20;;;;;;;;;;5051217;28;20470;-71
2023/10/20 12:59:03;;;;;;;56.00;1.90;;;;;;;;;;5051146;28;20469;-71
2023/10/20 13:01:31;;;;;;;55.80;1.90;;;;;;;;;;5050910;28;20581;-71
2023/10/20 13:03:59;;;;;;;55.60;1.90;;;;;;;;;;5051120;28;20929;-71
2023/10/20 13:06:26;;;;;;;55.70;2.10;;;;;;;;;;5051265;28;20444;-71
2023/10/20 13:08:54;;;;;;;55.73;1.90;;;;;;;;;;5051059;28;21045;-71
2023/10/20 13:11:21;;;;;;;55.83;2.00;;;;;;;;;;5052104;28;20450;-71
2023/10/20 13:13:48;;;;;;;55.83;2.07;;;;;;;;;;5051309;28;20956;-71
2023/10/20 13:16:15;;;;;;;56.40;1.93;;;;;;;;;;5050957;28;20972;-71
2023/10/20 13:18:44;;;;;;;55.73;1.90;;;;;;;;;;5042967;28;20472;-71
2023/10/20 13:21:11;;;;;;;55.70;1.80;;;;;;;;;;5051163;28;20445;-71
2023/10/20 13:23:38;;;;;;;55.83;1.90;;;;;;;;;;5050674;28;20535;-71
2023/10/20 13:26:06;;;;;;;55.90;1.87;;;;;;;;;;5050629;28;20448;-71
2023/10/20 13:28:33;;;;;;;55.70;1.97;;;;;;;;;;5050782;28;20461;-71
2023/10/20 13:31:03;;;;;;;57.40;2.00;;;;;;;;;;5050853;28;20831;-71
2023/10/20 13:33:30;;;;;;;55.77;1.90;;;;;;;;;;5050673;28;20858;-71
2023/10/20 13:36:02;;;;;;;56.00;1.90;;;;;;;;;;5051153;28;20444;-71
2023/10/20 13:38:30;;;;;;;55.67;1.70;;;;;;;;;;5051856;28;20452;-71
2023/10/20 13:40:58;;;;;;;55.67;1.90;;;;;;;;;;5055216;28;20444;-71
2023/10/20 13:43:25;;;;;;;55.80;1.90;;;;;;;;;;5054835;28;20494;-72
2023/10/20 13:45:53;;;;;;;55.77;2.10;;;;;;;;;;5055050;28;20460;-71
2023/10/20 13:48:20;;;;;;;55.90;1.90;;;;;;;;;;5054973;28;20457;-72
2023/10/20 13:50:47;;;;;;;55.87;1.90;;;;;;;;;;5055208;28;20451;-71
2023/10/20 13:53:15;;;;;;;55.57;1.90;;;;;;;;;;5055482;28;20944;-72
2023/10/20 13:55:42;;;;;;;55.53;1.80;;;;;;;;;;5061661;28;20542;-72
2023/10/20 13:58:11;;;;;;;55.73;2.00;;;;;;;;;;5064401;28;20517;-71
2023/10/20 14:00:38;;;;;;;55.87;1.90;;;;;;;;;;5063743;28;20484;-71
2023/10/20 14:03:05;;;;;;;55.80;2.10;;;;;;;;;;5062239;28;20484;-71
2023/10/20 14:05:32;;;;;;;55.77;2.00;;;;;;;;;;5060420;28;20487;-71
2023/10/20 14:08:00;;;;;;;55.90;1.90;;;;;;;;;;5062901;28;20456;-71
2023/10/20 14:10:28;;;;;;;55.87;2.00;;;;;;;;;;5059624;28;20476;-71
2023/10/20 14:12:55;;;;;;;55.77;1.83;;;;;;;;;;5063420;28;20445;-71
2023/10/20 14:15:23;;;;;;;56.20;1.90;;;;;;;;;;5064233;28;20440;-71
2023/10/20 14:17:50;;;;;;;55.87;1.80;;;;;;;;;;5065086;28;20447;-71
2023/10/20 14:20:19;;;;;;;55.67;1.70;;;;;;;;;;5064790;28;20471;-71
2023/10/20 14:22:47;;;;;;;55.77;1.70;;;;;;;;;;5067008;28;20506;-71
2023/10/20 14:25:14;;;;;;;55.90;1.90;;;;;;;;;;5066130;28;20460;-71
2023/10/20 14:27:43;;;;;;;56.47;2.40;;;;;;;;;;5064768;28;20472;-71
2023/10/20 14:30:10;;;;;;;55.93;2.10;;;;;;;;;;5066337;28;20473;-71
2023/10/20 14:32:37;;;;;;;55.80;1.80;;;;;;;;;;5064700;28;20444;-71
2023/10/20 14:35:04;;;;;;;55.73;1.50;;;;;;;;;;5064476;28;20452;-71
2023/10/20 14:37:31;;;;;;;55.77;1.90;;;;;;;;;;5056479;28;20445;-71
2023/10/20 14:39:58;;;;;;;55.93;2.00;;;;;;;;;;5053878;28;20487;-70
2023/10/20 14:42:25;;;;;;;56.00;1.90;;;;;;;;;;5053643;28;20862;-70
2023/10/20 14:44:54;;;;;;;55.77;1.80;;;;;;;;;;5053752;28;20447;-71
2023/10/20 14:47:21;;;;;;;56.00;1.90;;;;;;;;;;5053590;28;20479;-71
2023/10/20 14:49:48;;;;;;;56.03;1.90;;;;;;;;;;5044779;28;20466;-71
2023/10/20 14:52:16;;;;;;;56.47;2.30;;;;;;;;;;5053516;28;20554;-71
2023/10/20 14:54:43;;;;;;;56.20;2.23;;;;;;;;;;5053718;28;20874;-71
2023/10/20 14:57:10;;;;;;;56.77;2.30;;;;;;;;;;5053660;28;20440;-71
2023/10/20 14:59:37;;;;;;;56.00;2.10;;;;;;;;;;5053219;28;20470;-71